Latest Weather Observations for Walungurru (Kintore)

IDD60801

Issued at 10:11 am CST Thursday 21 November 2019 (issued every 10 minutes, with the page automatically refreshed every 10 minutes)

About weather observations | Map of weather stations | Latest weather observations for NT | Other Formats
Station Details ID: 015664 Name: WALUNGURRU AIRPORT Lat: -23.27 Lon: 129.38 Height: 454.3 m
Data from the previous 72 hours. | See also: Recent months at Walungurru (Kintore)
Date/Time
CST
Temp
°C
App
Temp
°C
Dew
Point
°C
Rel
Hum
%
Delta-T
°C
Wind Press
QNH
hPa
Press
MSL
hPa
Rain since
9am
mm
Dir  Spd
km/h
Gust
km/h
Spd
kts
Gust
kts
21/10:00am 35.1 28.6 4.6 15 16.6 SE 28 39 15 21 1012.2 1008.6 0.0
21/09:30am 34.1 27.0 3.8 15 16.2 SSE 30 41 16 22 1011.8 1008.2 0.0
21/09:00am 34.6 27.8 3.2 14 16.6 SSE 28 37 15 20 1011.4 1007.9 0.0
21/08:30am 33.5 26.5 4.2 16 15.7 SE 30 39 16 21 1010.9 1007.4 0.0
21/08:00am 32.4 25.8 4.2 17 15.0 SE 28 37 15 20 1010.5 1006.9 0.0
21/07:30am 31.1 25.5 3.2 17 14.5 SSE 22 28 12 15 1010.2 1006.6 0.0
21/07:00am 30.3 24.0 1.7 16 14.4 SSE 24 37 13 20 1010.1 1006.5 0.0
21/06:30am 29.3 23.1 0.0 15 14.3 SSE 22 28 12 15 1009.8 1006.2 0.0
21/06:00am 29.4 23.6 0.1 15 14.3 SE 20 26 11 14 1009.2 1005.7 0.0
21/05:30am 28.9 23.2 0.6 16 13.9 SSE 20 28 11 15 1008.8 1005.3 0.0
21/05:00am 28.2 23.1 0.9 17 13.4 S 17 20 9 11 1008.8 1005.3 0.0
21/04:30am 29.2 23.7 0.8 16 14.0 S 19 22 10 12 1008.5 1004.9 0.0
21/04:00am 30.0 24.6 1.5 16 14.3 S 19 26 10 14 1008.2 1004.6 0.0
21/03:30am 30.4 24.9 0.9 15 14.7 SSE 19 24 10 13 1007.9 1004.3 0.0
21/03:00am 30.8 25.8 1.2 15 14.9 SSE 17 22 9 12 1007.7 1004.1 0.0
21/02:30am 31.6 25.6 0.9 14 15.4 S 22 30 12 16 1007.8 1004.2 0.0
21/02:00am 32.1 26.1 1.3 14 15.6 S 22 32 12 17 1007.9 1004.3 0.0
21/01:30am 33.1 25.9 1.0 13 16.3 SSW 28 39 15 21 1008.4 1004.8 0.0
21/01:00am 33.9 26.7 0.5 12 16.9 S 28 43 15 23 1008.4 1004.8 0.0
21/12:36am 34.5 25.8 -0.2 11 17.4 SSW 35 54 19 29 1008.5 1004.9 0.0
21/12:30am 34.8 25.8 0.0 11 17.6 SSW 37 54 20 29 1008.5 1004.9 0.0
21/12:27am 35.0 26.8 0.2 11 17.6 SSW 33 52 18 28 1008.4 1004.8 0.0
21/12:26am 35.1 26.7 -1.1 10 17.9 SSW 33 46 18 25 1008.4 1004.8 0.0
21/12:00am 33.3 28.0 -3.8 9 17.4 SW 15 24 8 13 1008.3 1004.7 0.0
 
Date/Time
CST
Temp
°C
App
Temp
°C
Dew
Point
°C
Rel
Hum
%
Delta-T
°C
Wind Press
QNH
hPa
Press
MSL
hPa
Rain since
9am
mm
Dir  Spd
km/h
Gust
km/h
Spd
kts
Gust
kts
20/11:30pm 29.9 27.2 -6.4 9 15.9 CALM 0 0 0 0 1008.1 1004.5 0.0
20/11:00pm 29.8 26.1 -8.0 8 16.0 S 4 7 2 4 1008.3 1004.7 0.0
20/10:30pm 31.0 27.8 -7.1 8 16.6 WSW 2 6 1 3 1008.2 1004.6 0.0
20/10:00pm 31.9 28.2 -8.1 7 17.2 W 4 7 2 4 1008.1 1004.5 0.0
20/09:30pm 33.2 28.3 -7.2 7 17.9 NW 11 15 6 8 1007.9 1004.3 0.0
20/09:00pm 34.0 29.1 -6.6 7 18.3 NW 11 13 6 7 1007.7 1004.1 0.0
20/08:30pm 35.2 29.9 -7.7 6 19.2 NNW 13 15 7 8 1007.3 1003.7 0.0
20/08:00pm 36.0 31.5 -7.2 6 19.5 NW 9 13 5 7 1007.1 1003.5 0.0
20/07:30pm 37.5 32.5 -8.5 5 20.7 NW 11 15 6 8 1006.8 1003.3 0.0
20/07:00pm 38.6 33.6 -7.7 5 21.2 NW 11 15 6 8 1006.4 1002.8 0.0
20/06:30pm 39.4 33.0 -7.2 5 21.7 NW 19 24 10 13 1006.2 1002.6 0.0
20/06:00pm 39.8 34.2 -6.9 5 21.9 NW 15 24 8 13 1005.9 1002.3 0.0
20/05:30pm 39.9 34.6 -6.8 5 21.9 NNW 13 19 7 10 1005.8 1002.2 0.0
20/05:00pm 41.2 33.7 -8.8 4 22.9 NW 24 35 13 19 1005.7 1002.1 0.0
20/04:30pm 41.0 34.2 -8.9 4 22.9 WNW 20 37 11 20 1005.8 1002.2 0.0
20/04:00pm 41.6 34.5 -8.5 4 23.1 NW 22 39 12 21 1006.0 1002.4 0.0
20/03:30pm 42.3 35.8 -8.0 4 23.6 WNW 19 32 10 17 1006.1 1002.5 0.0
20/03:00pm 41.9 33.7 -8.3 4 23.4 WNW 28 50 15 27 1006.4 1002.8 0.0
20/02:30pm 42.3 35.5 -11.7 3 24.0 WNW 19 26 10 14 1006.8 1003.3 0.0
20/02:00pm 41.5 33.0 -12.2 3 23.5 NNW 28 43 15 23 1006.9 1003.4 0.0
20/01:43pm 41.6 33.1 -12.1 3 23.5 NW 28 46 15 25 1007.3 1003.7 0.0
20/01:30pm 40.7 33.9 -9.1 4 22.7 NW 20 41 11 22 1007.6 1004.0 0.0
20/01:00pm 41.5 32.9 -8.6 4 23.1 NW 30 43 16 23 1008.1 1004.5 0.0
20/12:30pm 40.9 31.4 -12.6 3 23.2 NW 33 50 18 27 1008.6 1005.0 0.0
20/12:00pm 40.5 30.5 -9.3 4 22.6 NW 37 50 20 27 1009.1 1005.6 0.0
20/11:30am 40.6 30.6 -9.2 4 22.6 NW 37 59 20 32 1009.4 1005.8 0.0
20/11:22am 40.3 31.6 -9.4 4 22.4 NNW 30 52 16 28 1009.4 1005.8 0.0
20/11:00am 40.3 31.2 -9.4 4 22.4 NW 32 44 17 24 1009.8 1006.2 0.0
20/10:30am 38.1 30.4 -10.9 4 21.3 NNW 24 35 13 19 1010.0 1006.4 0.0
20/10:00am 37.6 29.1 -11.2 4 21.0 NNW 28 41 15 22 1010.3 1006.7 0.0
20/09:30am 35.7 29.1 -9.7 5 19.7 N 19 24 10 13 1010.1 1006.5 0.0
20/09:00am 34.6 28.7 -10.5 5 19.2 N 15 20 8 11 1010.1 1006.5 0.0
20/08:30am 32.2 27.1 -9.9 6 17.7 N 11 15 6 8 1010.1 1006.5 0.0
20/08:00am 30.7 25.6 -9.0 7 16.7 N 11 19 6 10 1010.1 1006.5 0.0
20/07:30am 29.9 25.5 -9.6 7 16.3 NNE 7 11 4 6 1009.7 1006.1 0.0
20/07:00am 28.7 24.4 -8.8 8 15.5 NE 7 11 4 6 1009.4 1005.8 0.0
20/06:30am 25.6 21.8 -9.6 9 14.0 NE 4 9 2 5 1009.1 1005.6 0.0
20/06:00am 24.8 20.4 -10.2 9 13.6 NE 7 11 4 6 1008.9 1005.4 0.0
20/05:30am 24.6 19.4 -10.3 9 13.5 ENE 11 11 6 6 1008.6 1005.0 0.0
20/05:00am 24.8 21.4 -10.2 9 13.6 SSW 2 9 1 5 1008.6 1005.0 0.0
20/04:30am 25.1 20.6 -11.4 8 14.0 N 7 9 4 5 1008.1 1004.5 0.0
20/04:00am 28.1 23.8 -9.2 8 15.3 ENE 7 13 4 7 1007.6 1004.0 0.0
20/03:30am 28.3 22.3 -10.7 7 15.6 NE 15 17 8 9 1007.7 1004.1 0.0
20/03:00am 25.3 20.8 -11.3 8 14.1 ESE 7 9 4 5 1008.0 1004.4 0.0
20/02:30am 24.2 20.2 -12.1 8 13.6 SSE 4 9 2 5 1008.2 1004.6 0.0
20/02:00am 26.9 22.0 -11.8 7 14.9 NW 9 13 5 7 1008.3 1004.7 0.0
20/01:30am 28.6 23.4 -10.5 7 15.7 ENE 11 13 6 7 1008.2 1004.6 0.0
20/01:00am 27.4 22.9 -11.4 7 15.2 ENE 7 9 4 5 1008.5 1004.9 0.0
20/12:30am 27.7 23.4 -11.2 7 15.3 ENE 6 7 3 4 1008.9 1005.4 0.0
20/12:00am 28.0 22.7 -12.9 6 15.7 E 11 13 6 7 1009.2 1005.7 0.0
 
Date/Time
CST
Temp
°C
App
Temp
°C
Dew
Point
°C
Rel
Hum
%
Delta-T
°C
Wind Press
QNH
hPa
Press
MSL
hPa
Rain since
9am
mm
Dir  Spd
km/h
Gust
km/h
Spd
kts
Gust
kts
19/11:30pm 29.2 23.7 -10.1 7 16.0 ENE 13 15 7 8 1009.6 1006.0 0.0
19/11:00pm 28.9 23.0 -10.3 7 15.8 ENE 15 17 8 9 1009.8 1006.2 0.0
19/10:30pm 29.2 24.7 -12.0 6 16.2 ENE 7 9 4 5 1009.8 1006.2 0.0
19/10:00pm 30.2 25.3 -11.3 6 16.7 ENE 9 13 5 7 1009.7 1006.1 0.0
19/09:30pm 30.2 27.1 -11.3 6 16.7 CALM 0 0 0 0 1009.6 1006.0 0.0
19/09:00pm 32.6 29.4 -11.9 5 18.2 CALM 0 0 0 0 1009.5 1005.9 0.0
19/08:30pm 32.6 29.4 -11.9 5 18.2 CALM 0 0 0 0 1009.2 1005.7 0.0
19/08:00pm 35.6 31.2 -12.6 4 19.9 NE 6 7 3 4 1008.9 1005.4 0.0
19/07:30pm 37.6 33.1 -11.2 4 21.0 NNE 7 11 4 6 1008.6 1005.0 0.0
19/07:00pm 39.0 34.9 -13.8 3 22.1 SE 4 9 2 5 1008.3 1004.7 0.0
19/06:30pm 39.7 35.3 -13.4 3 22.5 E 6 11 3 6 1008.1 1004.5 0.0
19/06:00pm 39.9 34.9 -13.2 3 22.6 NE 9 17 5 9 1008.0 1004.4 0.0
19/05:30pm 40.2 34.9 -13.0 3 22.8 NNW 11 20 6 11 1007.9 1004.3 0.0
19/05:00pm 41.1 36.2 -12.5 3 23.3 NNW 9 19 5 10 1007.9 1004.3 0.0
19/04:30pm 41.1 36.7 -12.5 3 23.3 W 6 11 3 6 1008.0 1004.4 0.0
19/04:00pm 40.2 34.9 -13.0 3 22.7 NE 11 17 6 9 1008.2 1004.6 0.0
19/03:30pm 40.5 33.4 -12.9 3 23.0 NW 20 30 11 16 1008.6 1005.0 0.0
19/03:00pm 41.1 35.4 -12.5 3 23.3 W 13 20 7 11 1008.8 1005.3 0.0
19/02:30pm 40.4 35.4 -12.9 3 22.9 ENE 9 20 5 11 1009.1 1005.6 0.0
19/02:00pm 40.2 34.9 -13.0 3 22.7 NE 11 26 6 14 1009.7 1006.1 0.0
19/01:30pm 39.6 35.0 -13.4 3 22.4 SW 7 15 4 8 1010.2 1006.6 0.0
19/01:00pm 39.9 35.7 -9.7 4 22.2 SW 6 15 3 8 1010.8 1007.3 0.0
19/12:30pm 38.5 32.2 -10.6 4 21.5 W 17 24 9 13 1011.3 1007.8 0.0
19/12:00pm 38.9 32.6 -10.3 4 21.7 NNE 17 28 9 15 1011.8 1008.2 0.0
19/11:30am 38.7 32.0 -10.5 4 21.6 N 19 30 10 16 1012.2 1008.6 0.0
19/11:00am 37.8 31.3 -8.3 5 20.8 NNE 19 32 10 17 1012.6 1009.0 0.0
19/10:30am 37.1 30.0 -8.7 5 20.4 NNE 22 30 12 16 1012.9 1009.4 0.0
19/10:00am 36.2 28.8 -7.0 6 19.6 ENE 24 30 13 16 1013.2 1009.7 0.0
19/09:30am 35.1 26.9 -7.8 6 19.1 ENE 28 35 15 19 1013.4 1009.9 0.0
19/09:00am 33.7 25.4 -8.8 6 18.4 ENE 28 35 15 19 1013.4 1009.9 0.0
19/08:30am 32.6 24.4 -7.6 7 17.6 ENE 28 35 15 19 1013.4 1009.9 0.0
19/08:00am 30.1 21.9 -7.7 8 16.2 ENE 28 37 15 20 1013.3 1009.8 0.0
19/07:30am 29.1 20.5 -8.5 8 15.7 ENE 30 39 16 21 1013.2 1009.7 0.0
19/07:00am 27.7 19.1 -8.0 9 14.9 ENE 30 41 16 22 1013.0 1009.5 0.0
19/06:30am 28.0 19.4 -7.8 9 15.0 ENE 30 43 16 23 1012.6 1009.0 0.0
19/06:00am 27.9 19.2 -9.4 8 15.2 ENE 30 37 16 20 1012.3 1008.7 0.0
19/05:30am 27.1 19.6 -8.5 9 14.6 ENE 24 30 13 16 1012.3 1008.7 0.0
19/05:00am 26.5 19.4 -8.9 9 14.3 ENE 22 26 12 14 1012.2 1008.6 0.0
19/04:30am 27.6 20.0 -9.6 8 15.0 ENE 24 32 13 17 1012.1 1008.5 0.0
19/04:00am 28.7 20.4 -8.8 8 15.5 E 28 39 15 21 1011.7 1008.1 0.0
19/03:30am 29.5 21.3 -8.2 8 15.9 E 28 37 15 20 1011.4 1007.9 0.0
19/03:00am 30.2 21.1 -9.4 7 16.5 E 32 43 17 23 1011.4 1007.9 0.0
19/02:30am 31.1 21.9 -8.7 7 16.9 E 33 43 18 23 1011.4 1007.9 0.0
19/02:00am 31.6 23.4 -8.3 7 17.1 E 28 41 15 22 1011.5 1008.0 0.0
19/01:30am 31.7 24.1 -10.2 6 17.4 E 24 32 13 17 1011.8 1008.2 0.0
19/01:00am 31.9 24.8 -8.1 7 17.2 ESE 22 32 12 17 1012.1 1008.5 0.0
19/12:30am 30.8 24.6 -8.9 7 16.7 SE 17 22 9 12 1012.4 1008.8 0.0
19/12:00am 28.0 23.3 -9.3 8 15.2 SE 9 13 5 7 1012.6 1009.0 0.0
 
Date/Time
CST
Temp
°C
App
Temp
°C
Dew
Point
°C
Rel
Hum
%
Delta-T
°C
Wind Press
QNH
hPa
Press
MSL
hPa
Rain since
9am
mm
Dir  Spd
km/h
Gust
km/h
Spd
kts
Gust
kts
18/11:30pm 29.3 24.5 -10.0 7 16.0 SE 9 13 5 7 1013.0 1009.5 0.0
18/11:00pm 29.5 24.4 -9.9 7 16.1 SE 11 20 6 11 1013.2 1009.7 0.0
18/10:30pm 29.4 24.3 -9.9 7 16.1 SE 11 13 6 7 1013.1 1009.6 0.0
18/10:00pm 29.8 24.3 -9.7 7 16.3 SE 13 13 7 7 1013.0 1009.5 0.0
18/09:30pm 30.7 25.1 -10.9 6 16.9 E 13 15 7 8 1012.9 1009.4 0.0
18/09:00pm 31.2 26.4 -10.6 6 17.2 E 9 13 5 7 1012.8 1009.2 0.0
18/08:30pm 32.2 26.5 -12.2 5 17.9 E 13 13 7 7 1012.7 1009.1 0.0
18/08:00pm 34.0 28.8 -10.9 5 18.8 ESE 11 13 6 7 1012.5 1008.9 0.0
18/07:30pm 35.7 30.0 -12.5 4 20.0 ESE 13 15 7 8 1012.3 1008.7 0.0
18/07:00pm 37.5 31.9 -11.3 4 20.9 ESE 13 19 7 10 1011.9 1008.3 0.0
18/06:30pm 38.4 32.1 -10.7 4 21.4 ESE 17 24 9 13 1011.5 1008.0 0.0
18/06:00pm 39.0 32.7 -10.3 4 21.8 E 17 24 9 13 1011.4 1007.9 0.0
18/05:30pm 39.3 33.8 -10.1 4 21.9 ESE 13 20 7 11 1011.3 1007.8 0.0
18/05:00pm 39.0 32.7 -10.3 4 21.7 SE 17 26 9 14 1011.4 1007.9 0.0
18/04:30pm 38.9 33.7 -10.3 4 21.7 NE 11 22 6 12 1011.5 1008.0 0.0
18/04:00pm 39.3 33.0 -10.1 4 21.9 E 17 22 9 12 1012.0 1008.4 0.0
18/03:30pm 41.0 35.6 -8.9 4 22.8 NNE 13 33 7 18 1012.2 1008.6 0.0
18/03:00pm 39.2 33.7 -10.1 4 21.9 SE 13 20 7 11 1012.5 1008.9 0.0
18/02:30pm 39.3 33.0 -10.1 4 21.9 ENE 17 26 9 14 1013.1 1009.6 0.0
18/02:00pm 38.0 33.8 -8.1 5 20.9 WNW 7 13 4 7 1013.5 1010.0 0.0
18/01:30pm 38.1 32.3 -8.1 5 20.9 N 15 28 8 15 1014.2 1010.6 0.0
18/01:00pm 38.1 32.3 -8.1 5 20.9 NW 15 26 8 14 1014.8 1011.2 0.0
18/12:30pm 37.9 32.5 -8.2 5 20.8 N 13 24 7 13 1015.4 1011.9 0.0
18/12:00pm 37.2 30.6 -8.7 5 20.4 NE 19 30 10 16 1015.8 1012.3 0.0
18/11:30am 36.7 30.7 -6.7 6 19.9 NE 17 35 9 19 1016.4 1012.8 0.0
18/11:00am 36.4 30.0 -4.9 7 19.4 NE 20 35 11 19 1016.7 1013.1 0.0
18/10:30am 35.8 28.2 -5.3 7 19.1 NE 26 35 14 19 1017.0 1013.5 0.0

Other formats

Comma delimited format used in spreadsheet applications
http://www.bom.gov.au/fwo/IDD60801/IDD60801.94321.axf

JavaScript Object Notation format (JSON) in row-major order
http://www.bom.gov.au/fwo/IDD60801/IDD60801.94321.json

Data quality

Most of these data are generated automatically and are frequently updated. Quality checks on data are not normally performed. It is possible for incorrect values to appear. Refer to information at About Latest Weather Observations and please check the disclaimer before using these data.